Skip Navigation Links
NOAA logo - Click to go to the NOAA homepage
NOAA's National Weather Service
Alaska Aviation Weather Unit
  NWS logo - Click to go to the NWS homepage
Left Navbar Graphic     22 AKDT = 06 GMT

   
NOAA is celebrating 200 years of science, service, and stewardship. Visit the NOAA 200th celebration Web site to learn more.
USA.gov is the U.S. Government's official Web portal to all Federal, state and local government Web resources and services.
Facebook
NWS on Facebook

Important Change Regarding the AAWU Web Presence

 

Over the last several months, the AAWU has been working to navigate its webpages to a nationally supported server. Security, as well as other needs, have necessitated the change.  We have been given an extension for the site changeover while we diligently work at addressing feedback received. As of July 14, 2017, aawu.arh.noaa.gov will be discontinued. The new AAWU web address is weather.gov/aawu. It is now live and will run in-parallel with the old site until it is discontinued on July 14, 2017. Please continue to send any feedback or questions regarding the new webpages to nws.ar.aawu.webauthors@noaa.gov.  Thank you for your patience during this time of transition.
AAWU Home :: Display TAF Add Bookmark
TAF PABT 260534Z 2606/2706 VRB06KT 6SM BR VCSH SCT025 BKN035 OVC050=

METAR PABT 260053Z VRB04KT 10SM FEW042 SCT048 BKN070 BKN200 19/08 A2984 RMK AO2 SLP111 T01890078= METAR PABT 260153Z VRB04KT 10SM FEW042 SCT048 BKN070 BKN200 19/09 A2983 RMK AO2 SLP109 T01940089= METAR PABT 260253Z 22007KT 10SM FEW042 SCT048 BKN070 BKN200 19/10 A2982 RMK AO2 SLP105 T01890100 57010= METAR PABT 260353Z VRB06KT 10SM FEW042 SCT048 BKN070 BKN200 18/10 A2982 RMK AO2 SLP106 T01780100= METAR PABT 260453Z 21005KT 10SM FEW048 SCT055 BKN085 BKN200 18/10 A2983 RMK AO2 SLP107 T01780100= METAR PABT 260553Z 17003KT 10SM FEW028 SCT055 BKN085 BKN200 17/10 A2983 RMK AO2 SLP108 T01720100 10206 20172 53003=
 Alaska TAF Map

NOAA's National Weather Service
Alaska Aviation Weather Unit
6930 Sand Lake Road
Anchorage, AK 99502-1845
Disclaimer
Credits
Glossary
Privacy Policy
About Us
Career Opportunities
Contact AAWU Internet Services Site last modified: April, 17th 2012